Time;durP1;ratioP1;P1;durP2;ratioP2;P2;SDS_P1;SDS_P2;PMS_P1;PMS_P2;Temp;Humidity;BMP_temperature;BMP_pressure;BME280_temperature;BME280_humidity;BME280_pressure;Samples;Min_cycle;Max_cycle;Signal;HPM_P1;HPM_P2
2022/05/01 00:02:08;;;;;;;19.52;9.43;;;;;;;9.03;56.55;100812.16;5095981;28;20116;-67
2022/05/01 00:04:34;;;;;;;18.77;8.88;;;;;;;9.03;56.32;100797.97;5095706;28;20031;-67
2022/05/01 00:06:59;;;;;;;15.80;9.07;;;;;;;9.02;56.58;100793.56;5095627;28;20028;-68
2022/05/01 00:09:25;;;;;;;19.00;9.95;;;;;;;8.98;56.65;100781.47;5095509;28;20023;-68
2022/05/01 00:11:50;;;;;;;17.58;8.82;;;;;;;8.96;56.43;100786.06;5095264;28;20389;-68
2022/05/01 00:14:17;;;;;;;20.23;10.32;;;;;;;8.97;56.58;100782.75;5095815;28;20415;-68
2022/05/01 00:16:43;;;;;;;12.60;8.95;;;;;;;8.97;56.30;100779.91;5077450;28;20035;-68
2022/05/01 00:19:08;;;;;;;21.42;9.77;;;;;;;8.96;56.64;100781.16;5077257;28;20447;-69
2022/05/01 00:21:34;;;;;;;19.42;9.48;;;;;;;8.92;56.08;100779.69;5077286;28;20032;-69
2022/05/01 00:24:00;;;;;;;20.25;10.55;;;;;;;8.93;56.57;100784.13;5077037;28;20016;-69
2022/05/01 00:26:26;;;;;;;16.15;9.27;;;;;;;8.93;56.64;100787.75;5077075;28;20070;-69
2022/05/01 00:28:51;;;;;;;19.35;10.25;;;;;;;8.92;56.65;100785.38;5076850;28;20173;-68
2022/05/01 00:31:17;;;;;;;19.35;9.90;;;;;;;8.91;56.43;100781.75;5094931;28;20499;-69
2022/05/01 00:36:26;;;;;;;19.15;10.25;;;;;;;8.85;56.62;100783.56;5079981;28;20039;-68
2022/05/01 00:38:56;;;;;;;19.70;8.98;;;;;;;8.84;56.59;100779.13;5076794;28;20024;-67
2022/05/01 00:41:23;;;;;;;20.98;9.70;;;;;;;8.78;57.18;100783.00;5076745;28;20035;-68
2022/05/01 00:43:58;;;;;;;20.10;9.55;;;;;;;8.78;57.40;100780.16;5095138;28;20024;-68
2022/05/01 00:46:24;;;;;;;17.92;9.35;;;;;;;8.78;57.14;100783.78;5095037;28;20035;-69
2022/05/01 00:48:50;;;;;;;17.38;8.52;;;;;;;8.61;57.35;100748.25;5094819;28;20024;-68
2022/05/01 00:51:16;;;;;;;18.60;9.02;;;;;;;8.77;57.50;100778.56;5076688;28;20074;-69
2022/05/01 00:53:43;;;;;;;17.48;8.93;;;;;;;8.75;57.45;100773.34;5059683;28;20020;-68
2022/05/01 00:56:08;;;;;;;19.25;9.43;;;;;;;8.77;58.18;100775.72;5060155;28;20062;-68
2022/05/01 00:58:34;;;;;;;19.33;9.35;;;;;;;8.75;58.07;100775.38;5094469;28;20024;-68
2022/05/01 01:01:00;;;;;;;18.90;9.60;;;;;;;8.70;58.13;100770.25;5076614;28;20372;-69
2022/05/01 01:03:25;;;;;;;27.67;10.38;;;;;;;8.73;57.94;100780.72;5076419;28;20186;-69
2022/05/01 01:05:50;;;;;;;21.25;10.80;;;;;;;8.72;58.43;100785.63;5076377;28;20048;-69
2022/05/01 01:08:16;;;;;;;16.05;9.70;;;;;;;8.70;58.31;100776.75;5094222;28;20389;-69
2022/05/01 01:10:41;;;;;;;22.17;10.40;;;;;;;8.68;58.36;100780.03;5094539;28;20024;-69
2022/05/01 01:13:06;;;;;;;20.02;10.55;;;;;;;8.68;58.39;100778.47;5057140;28;20394;-69
2022/05/01 01:15:32;;;;;;;20.13;10.60;;;;;;;8.68;58.74;100778.47;5056481;28;20020;-69
2022/05/01 01:17:58;;;;;;;21.10;10.38;;;;;;;8.65;58.47;100774.47;5074041;28;20477;-69
2022/05/01 01:20:24;;;;;;;22.13;9.98;;;;;;;8.68;58.87;100776.41;5073799;28;20478;-68
2022/05/01 01:22:51;;;;;;;16.02;8.75;;;;;;;8.64;58.83;100768.00;5038781;28;20047;-69
2022/05/01 01:25:31;;;;;;;22.23;9.68;;;;;;;8.69;58.43;100775.16;5056041;28;20024;-69
2022/05/01 01:28:02;;;;;;;14.80;8.65;;;;;;;8.67;58.09;100771.97;5039633;28;20473;-69
2022/05/01 01:33:14;;;;;;;20.92;9.48;;;;;;;8.61;59.07;100782.31;5073656;28;20389;-69
2022/05/01 01:35:40;;;;;;;13.05;8.85;;;;;;;8.58;58.41;100775.47;5055595;28;20024;-69
2022/05/01 01:38:06;;;;;;;21.80;10.18;;;;;;;8.55;59.04;100776.41;5055756;28;20028;-69
2022/05/01 01:40:41;;;;;;;18.27;10.10;;;;;;;8.51;59.58;100767.22;5073314;28;20032;-68
2022/05/01 01:43:07;;;;;;;16.30;9.23;;;;;;;8.50;58.94;100776.97;5073680;28;20151;-68
2022/05/01 01:45:33;;;;;;;16.67;9.15;;;;;;;8.48;59.21;100770.16;5073593;28;20032;-68
2022/05/01 01:48:13;;;;;;;17.13;9.90;;;;;;;8.46;59.50;100769.81;5073339;28;20024;-68
2022/05/01 01:50:39;;;;;;;18.35;9.25;;;;;;;8.41;59.41;100774.00;5073712;28;20027;-68
2022/05/01 01:53:04;;;;;;;18.73;9.73;;;;;;;8.38;59.60;100774.13;5073565;28;20020;-68
2022/05/01 01:55:33;;;;;;;15.02;9.25;;;;;;;8.28;60.17;100766.72;5055448;28;20373;-68
2022/05/01 01:57:58;;;;;;;16.85;8.32;;;;;;;8.30;59.88;100770.69;5055344;28;20052;-68
2022/05/01 02:00:24;;;;;;;16.02;8.68;;;;;;;8.23;60.28;100774.53;5055210;28;20056;-68
2022/05/01 02:02:56;;;;;;;17.35;8.52;;;;;;;8.21;60.56;100777.03;5055422;28;20370;-69
2022/05/01 02:05:21;;;;;;;19.77;10.48;;;;;;;8.16;60.45;100777.56;5073296;28;20027;-68
2022/05/01 02:07:47;;;;;;;19.33;9.90;;;;;;;8.08;60.62;100783.91;5055510;28;20025;-68
2022/05/01 02:10:12;;;;;;;20.30;10.25;;;;;;;8.07;60.37;100768.13;5038726;28;20043;-68
2022/05/01 02:12:37;;;;;;;18.52;9.27;;;;;;;8.04;60.33;100780.41;5069867;28;20044;-68
2022/05/01 02:15:04;;;;;;;20.10;8.70;;;;;;;7.96;60.61;100774.13;5093707;28;20027;-68
2022/05/01 02:17:29;;;;;;;17.70;8.82;;;;;;;7.97;60.81;100786.25;5093936;28;20099;-68
2022/05/01 02:19:54;;;;;;;21.77;9.15;;;;;;;7.88;60.66;100777.63;5093461;28;20422;-68
2022/05/01 02:22:21;;;;;;;18.52;8.95;;;;;;;7.88;61.21;100778.41;5093331;28;20020;-68
2022/05/01 02:24:47;;;;;;;18.55;8.93;;;;;;;7.81;61.29;100768.06;5093468;28;20020;-68
2022/05/01 02:27:12;;;;;;;17.00;9.25;;;;;;;7.77;61.30;100760.91;5093351;28;20093;-68
2022/05/01 02:29:38;;;;;;;18.35;8.98;;;;;;;7.80;61.03;100766.47;5075250;28;20075;-68
2022/05/01 02:32:03;;;;;;;17.08;9.55;;;;;;;7.78;61.10;100762.50;5075216;28;20469;-68
2022/05/01 02:34:29;;;;;;;19.65;9.90;;;;;;;7.73;61.42;100763.84;5093641;28;20047;-68
2022/05/01 02:36:55;;;;;;;16.50;9.70;;;;;;;7.72;61.69;100764.28;5093402;28;20050;-68
2022/05/01 02:39:22;;;;;;;16.40;9.52;;;;;;;7.73;61.94;100769.53;5093594;28;20032;-69
2022/05/01 02:41:48;;;;;;;20.92;9.57;;;;;;;7.71;62.02;100774.03;5075592;28;20027;-68
2022/05/01 02:44:13;;;;;;;15.93;8.95;;;;;;;7.61;61.84;100764.59;5093240;28;20036;-68
2022/05/01 02:46:38;;;;;;;14.65;8.55;;;;;;;7.59;61.72;100769.13;5075304;28;20035;-69
2022/05/01 02:49:07;;;;;;;18.30;9.50;;;;;;;7.63;61.81;100767.00;5075124;28;20031;-69
2022/05/01 02:51:33;;;;;;;20.77;11.27;;;;;;;7.57;62.12;100760.25;5094028;28;20016;-67
2022/05/01 02:53:59;;;;;;;21.45;9.68;;;;;;;7.60;62.54;100765.81;5061919;28;20016;-68
2022/05/01 02:56:24;;;;;;;20.10;9.07;;;;;;;7.57;62.21;100758.22;5062012;28;20099;-68
2022/05/01 02:58:50;;;;;;;16.50;9.43;;;;;;;7.55;62.02;100759.94;5097410;28;20129;-68
2022/05/01 03:01:15;;;;;;;15.85;8.70;;;;;;;7.52;61.88;100757.97;5096714;28;20020;-68
2022/05/01 03:03:41;;;;;;;14.88;8.48;;;;;;;7.46;62.18;100757.72;5096782;28;20024;-69
2022/05/01 03:06:06;;;;;;;15.82;8.93;;;;;;;7.48;62.88;100760.91;5097021;28;20030;-68
2022/05/01 03:08:32;;;;;;;17.13;9.35;;;;;;;7.46;62.72;100759.75;5096975;28;20623;-67
2022/05/01 03:10:57;;;;;;;14.30;8.15;;;;;;;7.43;62.74;100758.63;5096196;28;20385;-68
2022/05/01 03:13:22;;;;;;;30.77;15.98;;;;;;;7.41;63.00;100766.75;5061746;28;20484;-70
2022/05/01 03:15:48;;;;;;;21.10;9.80;;;;;;;7.38;62.52;100759.16;5061683;28;20016;-69
2022/05/01 03:23:43;;;;;;;15.55;8.25;;;;;;;7.32;62.44;100758.91;5096303;28;20388;-68
2022/05/01 03:26:08;;;;;;;18.50;8.43;;;;;;;7.31;62.81;100756.50;5096370;28;20020;-69
2022/05/01 03:28:33;;;;;;;11.32;7.88;;;;;;;7.26;62.88;100755.03;5096275;28;20024;-68
2022/05/01 03:30:59;;;;;;;13.88;8.13;;;;;;;7.27;62.75;100759.44;5078098;28;20098;-68
2022/05/01 03:33:25;;;;;;;20.58;8.48;;;;;;;7.29;62.37;100762.66;5078486;28;20028;-69
2022/05/01 03:35:51;;;;;;;15.88;7.80;;;;;;;7.29;62.11;100759.81;5077950;28;20043;-68
2022/05/01 03:38:17;;;;;;;11.77;7.28;;;;;;;7.33;62.13;100759.72;5078046;28;20047;-69
2022/05/01 03:40:43;;;;;;;20.55;9.30;;;;;;;7.33;62.34;100754.84;5061381;28;20016;-67
2022/05/01 03:43:08;;;;;;;18.58;8.60;;;;;;;7.36;61.90;100753.13;5096396;28;20060;-69
2022/05/01 03:45:34;;;;;;;18.10;8.45;;;;;;;7.34;62.24;100747.94;5077913;28;20028;-67
2022/05/01 03:48:00;;;;;;;24.98;10.35;;;;;;;7.41;62.62;100761.09;5078197;28;20097;-68
2022/05/01 03:50:26;;;;;;;15.13;8.60;;;;;;;7.42;62.50;100754.19;5096005;28;20437;-67
2022/05/01 03:52:51;;;;;;;17.38;8.65;;;;;;;7.44;62.95;100759.44;5095743;28;20103;-68
2022/05/01 03:55:17;;;;;;;14.95;9.48;;;;;;;7.48;62.50;100757.28;5096066;28;20026;-68
2022/05/01 03:57:42;;;;;;;22.88;9.40;;;;;;;7.46;62.96;100754.88;5077550;28;20031;-68
2022/05/01 04:00:18;;;;;;;16.60;8.80;;;;;;;7.55;62.26;100768.44;5077784;28;20110;-68
2022/05/01 04:02:44;;;;;;;17.58;7.90;;;;;;;7.53;62.51;100757.53;5095394;28;20020;-68
2022/05/01 04:05:10;;;;;;;17.90;9.60;;;;;;;7.60;62.57;100753.69;5077598;28;20054;-69
2022/05/01 04:07:36;;;;;;;16.48;8.38;;;;;;;7.68;62.21;100772.13;5060722;28;20573;-68
2022/05/01 04:10:02;;;;;;;16.52;8.15;;;;;;;7.71;61.83;100766.34;5095387;28;20095;-68
2022/05/01 04:12:27;;;;;;;19.63;10.48;;;;;;;7.78;61.33;100760.47;5063905;28;20225;-68
2022/05/01 04:14:52;;;;;;;16.33;8.35;;;;;;;7.89;61.12;100767.88;5057324;28;20103;-68
2022/05/01 04:17:18;;;;;;;15.15;8.70;;;;;;;8.01;60.63;100782.06;5057319;28;20052;-68
2022/05/01 04:19:44;;;;;;;15.50;8.55;;;;;;;8.03;60.81;100773.94;5074969;28;20024;-68
2022/05/01 04:22:09;;;;;;;16.35;9.80;;;;;;;8.15;60.13;100766.66;5075440;28;20183;-67
2022/05/01 04:24:34;;;;;;;12.35;8.02;;;;;;;8.18;59.92;100763.75;5075183;28;20477;-68
2022/05/01 04:27:00;;;;;;;15.00;8.45;;;;;;;8.33;60.25;100769.81;5075287;28;20111;-69
2022/05/01 04:29:38;;;;;;;14.95;8.63;;;;;;;8.41;59.58;100779.69;5040947;28;20026;-67
2022/05/01 04:32:05;;;;;;;16.90;8.65;;;;;;;8.49;59.51;100775.38;5058876;28;20028;-68
2022/05/01 04:34:31;;;;;;;14.38;8.10;;;;;;;8.51;59.58;100761.53;5056870;28;20020;-67
2022/05/01 04:36:58;;;;;;;13.73;7.60;;;;;;;8.64;59.31;100770.03;5056819;28;20448;-68
2022/05/01 04:39:24;;;;;;;18.75;7.07;;;;;;;8.70;58.59;100771.06;5040429;28;20509;-68
2022/05/01 04:41:49;;;;;;;15.82;8.35;;;;;;;8.72;58.45;100771.41;5074449;28;20046;-69
2022/05/01 04:44:14;;;;;;;13.35;7.72;;;;;;;8.89;58.17;100774.91;5074473;28;20466;-68
2022/05/01 04:46:40;;;;;;;15.38;6.72;;;;;;;9.02;57.59;100772.88;5074466;28;20043;-69
2022/05/01 04:49:05;;;;;;;14.13;7.88;;;;;;;9.16;57.40;100763.84;5074419;28;20050;-69
2022/05/01 04:51:30;;;;;;;14.30;7.68;;;;;;;9.37;57.36;100780.16;5056434;28;20454;-68
2022/05/01 04:53:56;;;;;;;13.15;7.43;;;;;;;9.55;56.17;100773.84;5074832;28;20081;-68
2022/05/01 04:59:07;;;;;;;15.25;6.88;;;;;;;10.02;55.07;100773.72;5074512;28;20027;-68
2022/05/01 05:01:33;;;;;;;13.27;7.20;;;;;;;10.27;55.18;100781.34;5074272;28;20032;-70
2022/05/01 05:03:59;;;;;;;14.52;6.97;;;;;;;10.39;53.87;100767.06;5074706;28;20020;-69
2022/05/01 05:06:24;;;;;;;12.68;7.32;;;;;;;10.56;53.13;100773.28;5074250;28;20024;-68
2022/05/01 05:11:33;;;;;;;12.00;6.43;;;;;;;10.82;52.22;100774.66;5079886;28;20462;-68
2022/05/01 05:13:59;;;;;;;12.75;7.53;;;;;;;10.88;51.65;100771.19;5093550;28;20055;-68
2022/05/01 05:16:24;;;;;;;12.73;7.78;;;;;;;10.92;51.68;100775.50;5094657;28;20077;-68
2022/05/01 05:18:49;;;;;;;12.07;6.78;;;;;;;10.95;51.42;100774.56;5076112;28;20377;-68
2022/05/01 05:21:14;;;;;;;14.10;6.90;;;;;;;11.12;51.31;100777.94;5075941;28;20393;-68
2022/05/01 05:23:40;;;;;;;15.20;7.80;;;;;;;11.09;50.49;100759.72;5094059;28;20032;-68
2022/05/01 05:26:05;;;;;;;11.82;6.53;;;;;;;11.22;49.92;100779.53;5059414;28;20028;-67
2022/05/01 05:28:30;;;;;;;12.65;6.95;;;;;;;11.32;49.47;100780.34;5075671;28;20016;-68
2022/05/01 05:30:56;;;;;;;12.23;7.20;;;;;;;11.38;49.25;100781.31;5094454;28;20087;-68
2022/05/01 05:33:22;;;;;;;12.20;6.25;;;;;;;11.52;49.68;100786.41;5094409;28;20027;-68
2022/05/01 05:35:47;;;;;;;13.32;7.13;;;;;;;11.68;49.29;100780.41;5094074;28;20032;-68
2022/05/01 05:38:13;;;;;;;12.68;7.03;;;;;;;11.88;48.05;100792.16;5059131;28;20027;-68
2022/05/01 05:40:39;;;;;;;9.18;6.32;;;;;;;12.08;47.14;100788.81;5093717;28;20070;-67
2022/05/01 05:43:04;;;;;;;11.85;6.75;;;;;;;12.25;47.80;100790.03;5075875;28;20030;-69
2022/05/01 05:45:29;;;;;;;10.25;6.20;;;;;;;12.51;47.48;100793.31;5075732;28;20427;-69
2022/05/01 05:47:55;;;;;;;12.05;6.00;;;;;;;12.75;46.56;100791.31;5093792;28;20020;-69
2022/05/01 05:50:20;;;;;;;12.23;6.10;;;;;;;12.99;46.26;100780.72;5075765;28;20048;-69
2022/05/01 05:52:46;;;;;;;9.93;4.82;;;;;;;13.17;45.43;100788.44;5094005;28;20428;-69
2022/05/01 05:55:11;;;;;;;10.85;6.32;;;;;;;13.31;44.97;100789.81;5093679;28;20090;-68
2022/05/01 05:57:37;;;;;;;12.75;7.47;;;;;;;13.40;44.49;100786.88;5093770;28;20028;-68
2022/05/01 06:00:03;;;;;;;12.20;7.05;;;;;;;13.51;44.76;100780.63;5093506;28;20457;-70
2022/05/01 06:02:29;;;;;;;11.35;6.72;;;;;;;13.62;43.12;100780.81;5075586;28;20035;-68
2022/05/01 06:04:54;;;;;;;11.07;7.05;;;;;;;13.66;43.81;100798.63;5075641;28;20032;-69
2022/05/01 06:07:19;;;;;;;14.27;6.55;;;;;;;13.78;44.02;100795.50;5093452;28;20164;-68
2022/05/01 06:09:44;;;;;;;11.88;7.13;;;;;;;13.91;43.28;100792.38;5075294;28;20024;-68
2022/05/01 06:12:10;;;;;;;11.55;6.40;;;;;;;14.05;43.89;100793.69;5093206;28;20044;-68
2022/05/01 06:14:36;;;;;;;13.07;7.18;;;;;;;14.24;43.49;100795.09;5075248;28;20435;-67
2022/05/01 06:17:01;;;;;;;10.43;6.88;;;;;;;14.37;42.17;100797.69;5075933;28;20022;-68
2022/05/01 06:19:26;;;;;;;13.48;6.93;;;;;;;14.44;42.02;100797.31;5058560;28;20406;-69
2022/05/01 06:21:52;;;;;;;11.45;7.53;;;;;;;14.62;43.08;100786.44;5075194;28;20049;-68
2022/05/01 06:24:19;;;;;;;14.63;7.10;;;;;;;14.84;42.00;100793.81;5059100;28;20101;-68
2022/05/01 06:26:44;;;;;;;12.50;7.35;;;;;;;15.01;42.40;100801.41;5078043;28;20024;-69
2022/05/01 06:29:09;;;;;;;10.38;6.80;;;;;;;15.24;42.17;100788.19;5097371;28;20110;-68
2022/05/01 06:31:39;;;;;;;12.80;6.75;;;;;;;15.39;40.76;100785.28;5097644;28;20018;-69
2022/05/01 06:34:04;;;;;;;11.77;6.97;;;;;;;15.84;40.27;100796.06;5079390;28;20038;-70
2022/05/01 06:36:30;;;;;;;10.75;6.93;;;;;;;16.40;39.92;100794.59;5079495;28;20103;-69
2022/05/01 06:38:55;;;;;;;12.95;6.97;;;;;;;17.13;37.99;100793.13;5097217;28;20423;-68
2022/05/01 06:41:21;;;;;;;12.80;7.10;;;;;;;18.15;35.50;100790.25;5097021;28;20028;-69
2022/05/01 06:43:46;;;;;;;11.00;6.28;;;;;;;19.10;32.86;100793.22;5078929;28;20030;-69
2022/05/01 06:46:13;;;;;;;12.10;7.82;;;;;;;20.18;31.58;100777.34;5097392;28;20028;-69
2022/05/01 06:48:38;;;;;;;15.63;8.07;;;;;;;21.16;28.62;100783.50;5096966;28;20080;-68
2022/05/01 06:51:03;;;;;;;14.32;8.05;;;;;;;21.86;27.96;100780.31;5096944;28;20024;-69
2022/05/01 06:53:29;;;;;;;14.02;7.90;;;;;;;22.51;27.34;100784.97;5078658;28;20067;-69
2022/05/01 06:55:57;;;;;;;12.07;7.22;;;;;;;23.00;27.38;100785.53;5096846;28;20028;-70
2022/05/01 06:58:23;;;;;;;10.60;7.85;;;;;;;23.48;25.27;100778.59;5097108;28;20028;-68
2022/05/01 07:00:51;;;;;;;12.60;7.70;;;;;;;24.15;25.67;100777.19;5096807;28;20028;-68
2022/05/01 07:03:17;;;;;;;11.13;7.90;;;;;;;24.57;24.41;100786.81;5078935;28;20421;-69
2022/05/01 07:05:42;;;;;;;11.65;8.00;;;;;;;24.75;22.93;100788.00;5096750;28;20472;-68
2022/05/01 07:08:08;;;;;;;13.40;8.88;;;;;;;24.69;22.66;100796.88;5078650;28;20114;-69
2022/05/01 07:10:33;;;;;;;11.77;8.23;;;;;;;25.23;24.08;100796.03;5096749;28;20028;-69
2022/05/01 07:12:59;;;;;;;11.00;7.93;;;;;;;25.51;23.50;100801.09;5096471;28;20044;-69
2022/05/01 07:15:24;;;;;;;13.27;8.25;;;;;;;25.68;22.19;100778.13;5096736;28;20047;-69
2022/05/01 07:17:50;;;;;;;11.20;7.82;;;;;;;26.60;22.01;100791.78;5096428;28;20433;-69
2022/05/01 07:20:15;;;;;;;11.02;8.15;;;;;;;27.43;20.63;100779.38;5078511;28;20020;-69
2022/05/01 07:22:40;;;;;;;11.77;7.93;;;;;;;27.70;19.51;100794.41;5096389;28;20377;-68
2022/05/01 07:25:06;;;;;;;15.77;8.93;;;;;;;28.64;20.82;100786.25;5078240;28;20055;-68
2022/05/01 07:27:31;;;;;;;11.80;8.27;;;;;;;28.66;20.74;100787.22;5078260;28;20043;-68
2022/05/01 07:29:56;;;;;;;10.93;8.35;;;;;;;28.83;20.88;100785.75;5096493;28;20026;-68
2022/05/01 07:32:22;;;;;;;10.07;7.75;;;;;;;28.85;19.24;100788.88;5096544;28;20115;-69
2022/05/01 07:34:47;;;;;;;14.02;8.27;;;;;;;28.61;19.48;100785.31;5078045;28;20092;-69
2022/05/01 07:37:14;;;;;;;11.57;7.20;;;;;;;27.99;20.22;100788.28;5060414;28;20385;-68
2022/05/01 07:39:39;;;;;;;11.68;7.18;;;;;;;27.47;22.02;100793.66;5096291;28;20035;-70
2022/05/01 07:42:05;;;;;;;14.88;8.30;;;;;;;26.90;21.93;100791.09;5095951;28;20028;-68
2022/05/01 07:44:30;;;;;;;9.95;7.00;;;;;;;27.46;22.71;100778.22;5095891;28;20039;-68
2022/05/01 07:46:55;;;;;;;10.63;7.57;;;;;;;28.13;22.26;100777.91;5096087;28;20085;-68
2022/05/01 07:49:21;;;;;;;9.82;7.30;;;;;;;28.47;21.42;100783.22;5095986;28;20476;-69
2022/05/01 07:51:46;;;;;;;13.32;7.70;;;;;;;28.32;21.22;100790.72;5096125;28;20027;-69
2022/05/01 07:54:12;;;;;;;9.18;7.18;;;;;;;28.87;20.85;100778.09;5095850;28;20103;-69
2022/05/01 07:56:38;;;;;;;11.10;7.70;;;;;;;29.24;19.85;100779.19;5095912;28;20052;-69
2022/05/01 07:59:03;;;;;;;12.65;7.45;;;;;;;29.30;19.88;100781.88;5095981;28;20052;-68
2022/05/01 08:01:29;;;;;;;9.80;6.90;;;;;;;29.37;20.27;100770.09;5095839;28;20031;-68
2022/05/01 08:06:38;;;;;;;11.32;7.25;;;;;;;28.88;21.02;100775.94;5095634;28;20553;-69
2022/05/01 08:09:04;;;;;;;12.18;8.43;;;;;;;28.68;19.33;100766.88;5095763;28;20024;-70
2022/05/01 08:11:31;;;;;;;11.55;8.00;;;;;;;28.51;20.64;100771.88;5071962;28;20481;-69
2022/05/01 08:13:58;;;;;;;12.23;7.47;;;;;;;28.49;20.05;100763.66;5075791;28;20039;-70
2022/05/01 08:16:24;;;;;;;9.38;7.47;;;;;;;28.60;20.93;100769.06;5075303;28;20136;-72
2022/05/01 08:21:35;;;;;;;11.32;7.85;;;;;;;28.04;22.10;100755.06;5074809;28;20090;-71
2022/05/01 08:24:01;;;;;;;10.48;7.05;;;;;;;27.65;22.65;100736.06;5040807;28;20105;-72
2022/05/01 08:26:26;;;;;;;11.18;7.30;;;;;;;27.32;22.39;100756.41;5040395;28;20453;-72
2022/05/01 08:28:54;;;;;;;11.50;8.68;;;;;;;27.47;21.61;100753.44;5056852;28;20119;-72
2022/05/01 08:31:19;;;;;;;11.05;7.57;;;;;;;27.66;22.53;100758.13;5075116;28;20031;-72
2022/05/01 08:33:44;;;;;;;10.52;7.32;;;;;;;27.98;21.07;100754.50;5075096;28;20427;-71
2022/05/01 08:36:10;;;;;;;10.30;7.13;;;;;;;28.33;20.95;100756.31;5074796;28;20081;-72
2022/05/01 08:38:38;;;;;;;10.13;6.97;;;;;;;28.42;20.22;100758.59;5074989;28;20040;-72
2022/05/01 08:41:04;;;;;;;10.48;7.07;;;;;;;28.17;21.31;100758.53;5075270;28;20097;-78
2022/05/01 08:43:31;;;;;;;13.63;7.45;;;;;;;28.37;21.61;100750.06;5056901;28;20083;-78
2022/05/01 08:46:15;;;;;;;9.38;6.45;;;;;;;28.12;20.94;100753.69;5057064;28;20163;-79
2022/05/01 08:49:06;;;;;;;11.93;6.32;;;;;;;28.86;19.54;100750.16;5073861;28;20036;-78
2022/05/01 08:51:36;;;;;;;10.65;5.93;;;;;;;29.16;18.44;100749.13;5056577;28;20036;-78
2022/05/01 08:54:04;;;;;;;12.25;7.25;;;;;;;29.22;20.16;100752.59;5056647;28;20028;-78
2022/05/01 08:56:32;;;;;;;8.13;5.65;;;;;;;28.99;17.82;100746.13;5039855;28;20025;-79
2022/05/01 08:58:58;;;;;;;8.50;6.00;;;;;;;28.96;17.93;100751.03;5056852;28;20024;-77
2022/05/01 09:01:23;;;;;;;8.38;6.10;;;;;;;28.84;19.37;100743.31;5042733;28;20029;-79
2022/05/01 09:03:49;;;;;;;8.13;5.28;;;;;;;28.92;19.10;100746.97;5056316;28;20032;-79
2022/05/01 09:06:14;;;;;;;9.32;6.05;;;;;;;28.68;20.16;100745.56;5056577;28;20115;-79
2022/05/01 09:08:40;;;;;;;7.38;5.43;;;;;;;28.48;19.42;100740.78;5074459;28;20043;-79
2022/05/01 09:13:50;;;;;;;9.60;6.00;;;;;;;28.15;21.42;100740.78;5079417;28;20042;-73
2022/05/01 09:16:16;;;;;;;9.93;6.47;;;;;;;27.92;20.86;100737.16;5094571;28;20036;-73
2022/05/01 09:18:43;;;;;;;12.20;5.93;;;;;;;27.68;21.54;100734.91;5094321;28;20051;-71
2022/05/01 09:21:08;;;;;;;8.65;5.93;;;;;;;27.48;21.75;100739.59;5094132;28;20039;-73
2022/05/01 09:23:38;;;;;;;9.07;5.82;;;;;;;26.89;20.17;100731.03;5094365;28;20032;-73
2022/05/01 09:26:05;;;;;;;7.25;5.18;;;;;;;26.71;21.99;100735.09;5094220;28;20028;-72
2022/05/01 09:28:30;;;;;;;7.88;5.32;;;;;;;27.00;20.37;100732.78;5077113;28;20055;-71
2022/05/01 09:30:55;;;;;;;9.32;5.97;;;;;;;26.97;20.19;100728.91;5094618;28;20438;-73
2022/05/01 09:33:21;;;;;;;9.90;5.68;;;;;;;26.85;20.56;100726.91;5094640;28;20024;-78
2022/05/01 09:35:47;;;;;;;6.35;4.90;;;;;;;26.91;20.50;100715.84;5076284;28;20099;-71
2022/05/01 09:38:30;;;;;;;7.47;5.53;;;;;;;26.71;20.47;100732.16;5094757;28;20342;-72
2022/05/01 09:40:58;;;;;;;9.45;5.43;;;;;;;26.55;21.73;100721.81;5093820;28;20461;-72
2022/05/01 09:43:38;;;;;;;6.47;4.25;;;;;;;26.17;23.02;100722.47;5076279;28;20055;-70
2022/05/01 09:46:25;;;;;;;8.40;4.80;;;;;;;25.82;23.22;100722.53;5076892;28;20016;-72
2022/05/01 09:48:59;;;;;;;7.88;5.47;;;;;;;25.56;21.42;100718.50;5094541;28;20028;-73
2022/05/01 09:51:26;;;;;;;9.02;5.18;;;;;;;25.39;22.10;100724.03;5094778;28;20028;-78
2022/05/01 09:53:51;;;;;;;8.50;5.53;;;;;;;25.29;22.83;100720.84;5076271;28;20392;-73
2022/05/01 09:56:17;;;;;;;6.65;4.63;;;;;;;25.20;23.26;100712.63;5094200;28;20110;-68
2022/05/01 09:58:43;;;;;;;5.82;4.68;;;;;;;25.09;24.22;100715.06;5075950;28;20028;-70
2022/05/01 10:01:16;;;;;;;5.70;4.28;;;;;;;25.24;23.83;100724.69;5093055;28;20036;-70
2022/05/01 10:03:43;;;;;;;7.95;4.63;;;;;;;25.19;26.17;100695.69;5093489;28;20028;-68
2022/05/01 10:06:11;;;;;;;7.40;4.82;;;;;;;25.36;25.47;100707.66;5093546;28;20070;-69
2022/05/01 10:08:38;;;;;;;7.10;4.75;;;;;;;25.20;24.36;100715.53;5093684;28;20032;-70
2022/05/01 10:11:05;;;;;;;7.13;4.80;;;;;;;25.23;24.76;100708.56;5076830;28;20020;-68
2022/05/01 10:13:31;;;;;;;5.78;4.15;;;;;;;25.30;24.98;100709.97;5075258;28;20028;-68
2022/05/01 10:15:57;;;;;;;7.90;4.80;;;;;;;25.29;24.06;100705.47;5093659;28;20028;-70
2022/05/01 10:18:24;;;;;;;5.80;3.78;;;;;;;25.23;22.31;100702.72;5094041;28;20135;-69
2022/05/01 10:20:49;;;;;;;5.30;3.28;;;;;;;25.10;22.98;100705.75;5093590;28;20031;-68
2022/05/01 10:23:16;;;;;;;4.80;3.40;;;;;;;25.15;21.67;100696.06;5075379;28;20077;-69
2022/05/01 10:25:47;;;;;;;5.00;3.50;;;;;;;25.25;21.78;100702.16;5075672;28;20027;-69
2022/05/01 10:28:41;;;;;;;5.70;4.10;;;;;;;25.45;21.71;100694.69;5075382;28;20123;-69
2022/05/01 10:34:49;;;;;;;7.38;4.15;;;;;;;24.54;22.73;100686.00;5093632;28;20039;-70
2022/05/01 10:37:17;;;;;;;6.95;4.55;;;;;;;24.44;24.83;100688.63;5075518;28;20036;-69
2022/05/01 10:39:42;;;;;;;7.38;4.88;;;;;;;24.32;24.41;100669.84;5093433;28;20106;-68
2022/05/01 10:42:08;;;;;;;7.10;4.30;;;;;;;24.42;24.30;100673.84;5075498;28;20127;-69
2022/05/01 10:44:38;;;;;;;6.53;4.15;;;;;;;24.44;26.42;100676.19;5075589;28;20060;-68
2022/05/01 10:47:12;;;;;;;8.60;4.25;;;;;;;24.27;27.81;100672.94;5093223;28;20103;-68
2022/05/01 10:49:41;;;;;;;7.85;4.38;;;;;;;24.15;26.70;100663.63;5075680;28;20099;-69
2022/05/01 10:52:17;;;;;;;7.28;4.30;;;;;;;23.91;23.99;100679.28;5093178;28;20461;-68
2022/05/01 10:55:05;;;;;;;8.55;4.53;;;;;;;23.76;23.22;100673.28;5093116;28;20107;-70
2022/05/01 10:57:31;;;;;;;8.75;4.18;;;;;;;23.55;26.50;100661.56;5093108;28;20028;-69
2022/05/01 11:00:05;;;;;;;8.85;4.80;;;;;;;23.43;26.50;100659.44;5092842;28;20051;-69
2022/05/01 11:02:31;;;;;;;9.60;4.25;;;;;;;23.37;24.83;100662.47;5093514;28;20032;-68
2022/05/01 11:04:58;;;;;;;5.82;4.10;;;;;;;23.27;26.94;100655.53;5074986;28;20054;-69
2022/05/01 11:07:26;;;;;;;5.60;3.78;;;;;;;23.25;31.30;100658.22;5092941;28;20369;-68
2022/05/01 11:09:51;;;;;;;7.72;4.45;;;;;;;23.15;26.34;100654.97;5092891;28;20453;-69
2022/05/01 11:12:22;;;;;;;7.57;4.35;;;;;;;23.30;27.56;100656.53;5093076;28;20051;-70
2022/05/01 11:14:55;;;;;;;6.00;4.53;;;;;;;23.15;27.19;100633.84;5096907;28;20111;-68
2022/05/01 11:17:36;;;;;;;6.35;3.78;;;;;;;23.36;26.84;100645.56;5078742;28;20031;-69
2022/05/01 11:20:05;;;;;;;9.30;4.53;;;;;;;23.45;26.70;100648.03;5078380;28;20031;-69
2022/05/01 11:22:31;;;;;;;5.43;4.15;;;;;;;23.59;27.38;100643.78;5096606;28;20064;-69
2022/05/01 11:24:56;;;;;;;8.35;4.13;;;;;;;23.42;27.15;100644.13;5096203;28;20024;-67
2022/05/01 11:27:22;;;;;;;6.82;4.22;;;;;;;23.56;27.85;100639.88;5096504;28;20020;-68
2022/05/01 11:30:09;;;;;;;4.72;3.60;;;;;;;23.57;26.25;100646.47;5096685;28;20020;-69
2022/05/01 11:32:44;;;;;;;5.80;3.90;;;;;;;23.51;25.27;100640.00;5096475;28;20024;-69
2022/05/01 11:35:11;;;;;;;7.45;3.88;;;;;;;23.53;25.38;100629.34;5096142;28;20472;-69
2022/05/01 11:37:47;;;;;;;5.45;3.35;;;;;;;23.84;25.99;100636.31;5096672;28;20063;-69
2022/05/01 11:40:22;;;;;;;5.57;4.63;;;;;;;23.66;24.98;100632.25;5078249;28;20101;-68
2022/05/01 11:42:48;;;;;;;6.97;4.35;;;;;;;23.75;24.52;100633.09;5078419;28;20123;-69
2022/05/01 11:45:14;;;;;;;6.20;4.22;;;;;;;23.98;23.80;100632.00;5096619;28;20031;-69
2022/05/01 11:47:40;;;;;;;4.70;3.13;;;;;;;23.82;25.80;100627.38;5078553;28;20024;-70
2022/05/01 11:50:07;;;;;;;7.28;3.40;;;;;;;24.02;24.81;100626.66;5078858;28;20050;-69